Latest Weather Observations for Dartmoor

IDV60801

Issued at 9:12 pm EST Thursday 22 August 2019 (issued every 10 minutes, with the page automatically refreshed every 10 minutes)

About weather observations | Map of weather stations | Latest weather observations for VIC | Other Formats
Station Details ID: 090194 Name: DARTMOOR Lat: -37.92 Lon: 141.26 Height: 51.0 m
Data from the previous 72 hours. | See also: Recent months at Dartmoor
Date/Time
EST
Temp
°C
App
Temp
°C
Dew
Point
°C
Rel
Hum
%
Delta-T
°C
Wind Press
QNH
hPa
Press
MSL
hPa
Rain since
9am
mm
Dir  Spd
km/h
Gust
km/h
Spd
kts
Gust
kts
22/09:00pm 9.9 9.5 9.6 98 0.1 W 2 4 1 2 1027.6 1027.7 0.4
22/08:30pm 9.9 8.7 9.4 97 0.2 WNW 6 7 3 4 1027.5 1027.6 0.2
22/08:00pm 10.2 8.8 9.4 95 0.4 WSW 7 9 4 5 1027.4 1027.5 0.2
22/07:30pm 10.5 9.0 8.4 87 1.0 SW 6 9 3 5 1027.4 1027.5 0.2
22/07:00pm 10.8 9.7 8.6 86 1.1 SSW 4 7 2 4 1027.3 1027.4 0.2
22/06:30pm 11.2 9.6 8.2 82 1.5 SSW 6 9 3 5 1027.1 1027.2 0.2
22/06:00pm 11.4 9.6 8.1 80 1.6 SSW 7 11 4 6 1027.0 1027.1 0.0
22/05:30pm 11.8 9.7 8.1 78 1.8 SW 9 15 5 8 1026.9 1027.0 0.0
22/05:00pm 12.2 10.6 8.7 79 1.7 SW 7 11 4 6 1026.6 1026.7 0.0
22/04:30pm 12.3 10.2 8.4 77 1.9 SSW 9 15 5 8 1026.6 1026.7 0.0
22/04:00pm 12.8 10.0 8.7 76 2.0 SSW 13 17 7 9 1026.6 1026.7 0.0
22/03:30pm 13.4 10.4 9.1 75 2.2 SW 15 24 8 13 1026.4 1026.5 0.0
22/03:00pm 13.5 10.0 8.8 73 2.4 SSW 17 24 9 13 1026.4 1026.5 0.0
22/02:30pm 12.9 10.1 8.6 75 2.2 SSW 13 19 7 10 1026.2 1026.3 0.0
22/02:00pm 14.0 11.3 9.0 72 2.5 SW 13 20 7 11 1026.0 1026.1 0.0
22/01:30pm 12.8 9.5 8.1 73 2.3 SSW 15 24 8 13 1026.1 1026.2 0.0
22/01:00pm 13.2 10.2 9.1 76 2.1 S 15 20 8 11 1026.3 1026.4 0.0
22/12:30pm 13.2 9.2 8.3 72 2.4 SW 19 26 10 14 1026.4 1026.5 0.0
22/12:00pm 12.9 8.3 8.2 73 2.3 SSW 22 30 12 16 1026.6 1026.7 0.0
22/11:30am 12.7 8.9 9.0 78 1.9 SSW 19 26 10 14 1026.7 1026.8 0.0
22/11:00am 12.2 8.7 8.7 79 1.7 SSW 17 26 9 14 1026.7 1026.8 0.0
22/10:30am 12.6 9.6 10.8 89 0.9 SSW 17 24 9 13 1026.7 1026.8 0.0
22/10:00am 11.9 8.0 9.3 84 1.3 SSW 20 32 11 17 1026.3 1026.4 0.0
22/09:30am 11.8 8.7 10.4 91 0.7 SSW 17 33 9 18 1026.0 1026.1 0.0
22/09:00am 11.4 9.6 10.9 97 0.3 SSW 11 17 6 9 1025.7 1025.8 4.0
22/08:30am 10.5 8.5 10.2 98 0.2 SW 11 19 6 10 1025.3 1025.4 4.0
22/08:00am 10.2 8.5 9.9 98 0.2 SW 9 15 5 8 1024.7 1024.8 4.0
22/07:30am 10.3 8.3 10.0 98 0.2 SW 11 17 6 9 1024.3 1024.4 4.0
22/07:00am 10.3 8.3 10.0 98 0.2 SW 11 17 6 9 1024.0 1024.1 4.0
22/06:30am 10.2 6.6 9.9 98 0.2 SSW 19 28 10 15 1024.0 1024.1 4.0
22/06:00am 10.5 7.4 10.2 98 0.2 SSW 17 24 9 13 1023.8 1023.9 3.6
22/05:30am 10.4 5.9 10.1 98 0.2 SSW 24 41 13 22 1023.7 1023.8 3.0
22/05:00am 10.9 7.5 10.4 97 0.3 SW 19 30 10 16 1023.4 1023.5 2.6
22/04:30am 10.8 7.7 10.3 97 0.3 WSW 17 28 9 15 1023.1 1023.2 2.6
22/04:00am 10.7 7.0 10.2 97 0.3 WSW 20 39 11 21 1023.0 1023.1 2.6
22/03:30am 11.2 7.5 10.1 93 0.6 WSW 20 33 11 18 1023.1 1023.2 2.2
22/03:00am 11.4 8.0 9.3 87 1.0 WSW 17 28 9 15 1023.1 1023.2 2.0
22/02:30am 11.2 7.8 9.3 88 1.0 WSW 17 32 9 17 1023.3 1023.4 2.0
22/02:00am 11.3 7.5 9.0 86 1.1 WSW 19 32 10 17 1023.3 1023.4 2.0
22/01:30am 11.4 7.7 9.3 87 1.1 WSW 19 33 10 18 1023.1 1023.2 2.0
22/01:00am 11.3 7.4 9.4 88 1.0 WSW 20 33 11 18 1023.0 1023.1 2.0
22/12:30am 11.4 7.9 10.3 93 0.6 WSW 19 35 10 19 1022.9 1023.0 2.0
22/12:08am 11.5 6.5 11.0 97 0.3 WSW 28 50 15 27 1023.1 1023.2 2.0
22/12:00am 11.5 7.7 11.0 97 0.3 WSW 22 41 12 22 1023.0 1023.1 2.0
 
Date/Time
EST
Temp
°C
App
Temp
°C
Dew
Point
°C
Rel
Hum
%
Delta-T
°C
Wind Press
QNH
hPa
Press
MSL
hPa
Rain since
9am
mm
Dir  Spd
km/h
Gust
km/h
Spd
kts
Gust
kts
21/11:30pm 11.5 7.7 11.2 98 0.2 WSW 22 35 12 19 1022.6 1022.7 2.0
21/11:00pm 11.6 8.2 11.1 97 0.3 WSW 20 44 11 24 1022.3 1022.4 1.2
21/10:30pm 11.8 8.6 11.3 97 0.3 W 19 30 10 16 1022.4 1022.5 1.2
21/10:00pm 12.0 8.8 11.2 95 0.4 W 19 35 10 19 1022.5 1022.6 0.8
21/09:30pm 12.5 8.2 10.6 88 1.0 W 24 41 13 22 1022.5 1022.6 0.4
21/09:00pm 12.5 8.9 10.4 87 1.1 W 20 37 11 20 1022.3 1022.4 0.4
21/08:30pm 12.2 8.7 10.3 88 1.0 W 19 33 10 18 1022.2 1022.3 0.4
21/08:00pm 11.9 8.2 10.1 89 0.9 W 20 33 11 18 1022.3 1022.4 0.4
21/07:30pm 11.9 8.7 10.1 89 0.9 W 17 30 9 16 1021.9 1022.0 0.4
21/07:00pm 12.1 8.5 10.5 90 0.8 W 20 32 11 17 1022.4 1022.5 0.4
21/06:30pm 12.0 9.0 10.7 92 0.7 W 17 32 9 17 1022.2 1022.3 0.4
21/06:00pm 11.8 9.4 11.3 97 0.3 W 15 32 8 17 1022.0 1022.1 0.4
21/05:30pm 11.9 8.7 11.4 97 0.3 W 19 35 10 19 1022.1 1022.2 0.4
21/05:00pm 12.0 8.8 11.4 96 0.3 W 19 32 10 17 1022.0 1022.1 0.4
21/04:30pm 12.6 10.0 10.8 89 0.9 W 15 30 8 16 1021.9 1022.0 0.4
21/04:00pm 12.9 9.5 10.4 85 1.3 W 19 32 10 17 1021.9 1022.0 0.4
21/03:30pm 12.9 8.9 10.3 84 1.3 W 22 35 12 19 1022.3 1022.4 0.4
21/03:00pm 13.3 9.2 10.1 81 1.6 WSW 22 37 12 20 1022.4 1022.5 0.4
21/02:30pm 13.2 8.6 9.8 80 1.7 WSW 24 43 13 23 1022.6 1022.7 0.4
21/02:00pm 13.5 9.3 9.9 79 1.8 W 22 41 12 22 1022.5 1022.6 0.4
21/01:30pm 13.4 9.8 10.4 82 1.6 W 20 35 11 19 1022.4 1022.5 0.4
21/01:00pm 13.9 10.4 10.9 82 1.6 W 20 39 11 21 1022.7 1022.8 0.4
21/12:30pm 13.6 9.9 10.0 79 1.9 WSW 20 33 11 18 1022.9 1023.0 0.4
21/12:00pm 13.0 9.7 10.9 87 1.1 WSW 19 33 10 18 1023.3 1023.4 0.4
21/11:30am 12.6 9.5 11.5 93 0.6 WSW 19 33 10 18 1023.7 1023.8 0.4
21/11:00am 12.4 9.4 12.1 98 0.2 WSW 19 30 10 16 1023.6 1023.7 0.4
21/10:30am 12.6 9.3 11.7 94 0.5 WSW 20 33 11 18 1023.5 1023.6 0.2
21/10:00am 12.3 8.9 11.2 93 0.6 WSW 20 33 11 18 1023.0 1023.1 0.2
21/09:30am 11.7 8.9 11.4 98 0.2 WSW 17 28 9 15 1023.1 1023.2 0.2
21/09:00am 11.4 8.5 11.1 98 0.2 WSW 17 26 9 14 1023.4 1023.5 2.6
21/08:30am 11.4 8.5 11.1 98 0.2 WSW 17 28 9 15 1023.2 1023.3 2.4
21/08:00am 11.0 8.0 10.7 98 0.2 WSW 17 28 9 15 1022.9 1023.0 2.4
21/07:30am 11.1 7.8 10.8 98 0.2 WSW 19 35 10 19 1022.6 1022.7 2.2
21/07:00am 11.2 8.3 10.9 98 0.2 WSW 17 28 9 15 1022.1 1022.2 2.0
21/06:30am 11.2 8.3 10.9 98 0.2 WSW 17 28 9 15 1021.9 1022.0 2.0
21/06:00am 11.3 8.4 11.0 98 0.2 W 17 33 9 18 1021.6 1021.7 1.8
21/05:30am 11.2 8.3 10.9 98 0.2 W 17 30 9 16 1021.2 1021.3 1.8
21/05:00am 11.2 8.3 10.9 98 0.2 W 17 28 9 15 1021.4 1021.5 1.8
21/04:30am 11.3 8.8 11.0 98 0.2 W 15 24 8 13 1021.5 1021.6 1.6
21/04:00am 11.4 8.5 11.1 98 0.2 W 17 30 9 16 1021.5 1021.6 1.4
21/03:30am 11.5 8.1 11.2 98 0.2 W 20 33 11 18 1021.6 1021.7 1.4
21/03:00am 11.5 8.1 11.2 98 0.2 W 20 33 11 18 1021.5 1021.6 1.4
21/02:30am 11.7 8.0 11.4 98 0.2 W 22 33 12 18 1021.7 1021.8 1.2
21/02:00am 11.9 8.8 11.6 98 0.2 W 19 32 10 17 1021.7 1021.8 1.0
21/01:30am 12.2 9.0 11.3 94 0.5 W 19 35 10 19 1021.8 1021.9 1.0
21/01:00am 12.1 8.6 11.0 93 0.6 WNW 20 39 11 21 1021.2 1021.3 1.0
21/12:30am 12.1 8.8 11.5 96 0.3 W 20 35 11 19 1022.1 1022.2 1.0
21/12:00am 12.0 8.9 11.5 97 0.3 W 19 44 10 24 1022.4 1022.5 1.0
 
Date/Time
EST
Temp
°C
App
Temp
°C
Dew
Point
°C
Rel
Hum
%
Delta-T
°C
Wind Press
QNH
hPa
Press
MSL
hPa
Rain since
9am
mm
Dir  Spd
km/h
Gust
km/h
Spd
kts
Gust
kts
20/11:30pm 12.2 8.8 11.4 95 0.4 W 20 35 11 19 1022.3 1022.4 1.0
20/11:00pm 12.3 8.7 10.7 90 0.8 W 20 39 11 21 1022.3 1022.4 1.0
20/10:30pm 12.2 8.7 10.3 88 1.0 WNW 19 35 10 19 1022.4 1022.5 1.0
20/10:00pm 12.1 8.6 10.3 89 0.9 W 19 37 10 20 1022.7 1022.8 1.0
20/09:30pm 12.1 8.4 10.2 88 1.0 W 20 32 11 17 1022.8 1022.9 1.0
20/09:00pm 11.8 8.7 10.4 91 0.7 WNW 17 30 9 16 1022.8 1022.9 1.0
20/08:30pm 12.0 8.3 10.1 88 1.0 W 20 39 11 21 1023.0 1023.1 1.0
20/08:00pm 11.7 8.0 10.1 90 0.8 WNW 20 37 11 20 1022.8 1022.9 1.0
20/07:30pm 11.6 8.1 10.2 91 0.7 WNW 19 33 10 18 1022.9 1023.0 1.0
20/07:00pm 11.7 7.7 10.4 92 0.7 W 22 43 12 23 1023.1 1023.2 1.0
20/06:30pm 11.8 8.3 10.2 90 0.8 WNW 19 35 10 19 1023.1 1023.2 1.0
20/06:00pm 12.1 8.5 9.7 85 1.2 WNW 19 32 10 17 1022.9 1023.0 1.0
20/05:30pm 12.2 8.4 9.8 85 1.2 W 20 33 11 18 1022.9 1023.0 1.0
20/05:00pm 12.3 7.3 9.7 84 1.3 WNW 26 39 14 21 1022.7 1022.8 1.0
20/04:30pm 12.6 8.7 9.6 82 1.5 WNW 20 37 11 20 1022.7 1022.8 1.0
20/04:00pm 12.6 8.9 10.0 84 1.3 WNW 20 37 11 20 1022.9 1023.0 1.0
20/03:30pm 12.6 8.6 10.3 86 1.2 WNW 22 37 12 20 1023.0 1023.1 1.0
20/03:00pm 12.4 9.0 10.6 89 0.9 WNW 19 33 10 18 1023.3 1023.4 1.0
20/02:30pm 12.6 8.1 11.3 92 0.7 WNW 26 46 14 25 1023.5 1023.6 1.0
20/02:00pm 12.4 8.2 11.1 92 0.7 WNW 24 37 13 20 1023.5 1023.6 0.8
20/01:30pm 12.2 8.4 11.3 94 0.5 WNW 22 41 12 22 1023.7 1023.8 0.8
20/01:00pm 11.9 8.6 11.6 98 0.2 W 20 52 11 28 1024.1 1024.2 0.8
20/12:30pm 11.9 7.4 11.4 97 0.3 WNW 26 41 14 22 1024.3 1024.4 0.4
20/12:00pm 12.2 8.2 11.7 97 0.3 WNW 24 50 13 27 1024.6 1024.7 0.2
20/11:30am 12.0 7.8 11.2 95 0.4 WNW 24 39 13 21 1024.7 1024.8 0.0
20/11:00am 11.9 8.3 10.6 92 0.7 WNW 20 30 11 16 1024.6 1024.7 0.0
20/10:30am 11.3 8.0 11.0 98 0.2 WNW 19 26 10 14 1024.8 1024.9 0.0
20/10:00am 11.0 7.4 10.5 97 0.3 WNW 20 30 11 16 1024.9 1025.0 0.0
20/09:30am 10.9 7.8 10.4 97 0.3 WNW 17 24 9 13 1024.9 1025.0 0.0
20/09:00am 10.4 8.0 9.9 97 0.3 WNW 13 20 7 11 1025.0 1025.1 0.8
20/08:30am 10.1 7.6 9.8 98 0.2 NW 13 20 7 11 1024.8 1024.9 0.8
20/08:00am 9.7 7.1 9.4 98 0.1 NW 13 19 7 10 1024.7 1024.8 0.8
20/07:30am 9.3 7.8 9.0 98 0.1 NW 7 11 4 6 1024.7 1024.8 0.8
20/07:00am 9.4 6.7 8.9 97 0.2 NW 13 22 7 12 1024.7 1024.8 0.8
20/06:30am 9.4 7.1 8.9 97 0.2 WNW 11 15 6 8 1024.6 1024.7 0.8
20/06:00am 9.1 6.7 8.6 97 0.2 WNW 11 19 6 10 1024.6 1024.7 0.8
20/05:30am 8.6 6.5 8.3 98 0.1 WNW 9 13 5 7 1024.6 1024.7 0.8
20/05:00am 8.4 6.3 8.1 98 0.1 NW 9 15 5 8 1024.6 1024.7 0.8
20/04:30am 8.5 6.4 8.2 98 0.1 NW 9 13 5 7 1024.5 1024.6 0.8
20/04:00am 8.3 6.1 8.0 98 0.1 NW 9 13 5 7 1024.6 1024.7 0.8
20/03:30am 8.9 6.1 8.6 98 0.1 WNW 13 20 7 11 1024.9 1025.0 0.8
20/03:00am 8.9 6.1 8.5 97 0.2 WNW 13 20 7 11 1024.8 1024.9 0.6
20/02:30am 8.4 6.2 8.0 97 0.2 NW 9 15 5 8 1025.1 1025.2 0.6
20/02:00am 8.4 6.2 8.0 97 0.2 NW 9 15 5 8 1025.4 1025.5 0.6
20/01:30am 7.9 6.0 7.6 98 0.1 NW 7 11 4 6 1025.5 1025.6 0.6
20/01:00am 7.8 5.5 7.4 97 0.2 NW 9 11 5 6 1025.6 1025.7 0.4
20/12:30am 7.8 5.9 7.5 98 0.1 NW 7 11 4 6 1025.9 1026.0 0.4
20/12:00am 7.7 5.4 7.4 98 0.1 NW 9 13 5 7 1025.9 1026.0 0.4
 
Date/Time
EST
Temp
°C
App
Temp
°C
Dew
Point
°C
Rel
Hum
%
Delta-T
°C
Wind Press
QNH
hPa
Press
MSL
hPa
Rain since
9am
mm
Dir  Spd
km/h
Gust
km/h
Spd
kts
Gust
kts
19/11:30pm 8.2 5.6 7.8 97 0.2 WNW 11 15 6 8 1026.2 1026.3 0.4
19/11:00pm 8.5 5.2 8.1 97 0.2 NW 15 26 8 14 1026.1 1026.2 0.4
19/10:30pm 8.2 5.2 7.8 97 0.2 WNW 13 20 7 11 1026.3 1026.4 0.4
19/10:00pm 8.2 5.2 7.8 97 0.2 WNW 13 20 7 11 1026.4 1026.5 0.4
19/09:30pm 7.6 4.9 7.3 98 0.1 WNW 11 17 6 9 1026.2 1026.3 0.4

Other formats

Comma delimited format used in spreadsheet applications
http://www.bom.gov.au/fwo/IDV60801/IDV60801.95822.axf

JavaScript Object Notation format (JSON) in row-major order
http://www.bom.gov.au/fwo/IDV60801/IDV60801.95822.json

Data quality

Most of these data are generated automatically and are frequently updated. Quality checks on data are not normally performed. It is possible for incorrect values to appear. Refer to information at About Latest Weather Observations and please check the disclaimer before using these data.